Time;durP1;ratioP1;P1;durP2;ratioP2;P2;SDS_P1;SDS_P2;PMS_P1;PMS_P2;Temp;Humidity;BMP_temperature;BMP_pressure;BME280_temperature;BME280_humidity;BME280_pressure;Samples;Min_cycle;Max_cycle;Signal;HPM_P1;HPM_P2
2024/03/30 00:00:48;;;;;;;10.13;6.60;;;;;;;8.61;96.05;99554.25;5011333;28;20265;-70
2024/03/30 00:03:13;;;;;;;14.43;6.87;;;;;;;8.59;96.65;99548.53;4994941;28;20681;-70
2024/03/30 00:05:39;;;;;;;13.37;8.20;;;;;;;8.59;97.40;99547.81;5006397;28;20228;-70
2024/03/30 00:08:05;;;;;;;12.13;9.50;;;;;;;8.57;98.73;99542.09;5002876;28;20214;-70
2024/03/30 00:10:32;;;;;;;12.63;7.70;;;;;;;8.57;98.45;99534.97;4998604;28;20208;-70
2024/03/30 00:12:58;;;;;;;14.43;8.50;;;;;;;8.56;98.63;99538.72;5003784;28;20266;-70
2024/03/30 00:15:28;;;;;;;9.70;7.13;;;;;;;8.55;98.44;99531.91;5011059;28;20697;-70
2024/03/30 00:17:53;;;;;;;13.67;9.03;;;;;;;8.55;100.00;99526.63;5006598;28;20622;-70
2024/03/30 00:20:22;;;;;;;12.50;8.00;;;;;;;8.55;99.76;99515.38;5004369;28;20199;-70
2024/03/30 00:22:47;;;;;;;12.90;7.87;;;;;;;8.54;100.00;99513.84;5005933;28;20208;-70
2024/03/30 00:25:14;;;;;;;12.30;8.70;;;;;;;8.54;99.62;99513.84;4989930;28;20613;-70
2024/03/30 00:27:39;;;;;;;12.87;8.00;;;;;;;8.54;100.00;99505.94;5006553;28;20208;-69
2024/03/30 00:30:07;;;;;;;12.97;8.10;;;;;;;8.53;100.00;99499.91;5004598;28;20579;-70
2024/03/30 00:32:34;;;;;;;11.50;7.97;;;;;;;8.54;100.00;99501.44;5006678;28;20571;-70
2024/03/30 00:35:00;;;;;;;10.13;7.53;;;;;;;8.56;100.00;99485.31;5011511;28;20214;-70
2024/03/30 00:37:25;;;;;;;12.90;8.27;;;;;;;8.57;100.00;99498.13;5007736;28;20733;-70
2024/03/30 00:39:52;;;;;;;12.37;7.30;;;;;;;8.59;100.00;99493.28;4999335;28;20299;-70
2024/03/30 00:42:17;;;;;;;12.33;7.53;;;;;;;8.60;100.00;99494.06;5005068;28;20219;-70
2024/03/30 00:44:44;;;;;;;10.57;6.90;;;;;;;8.60;100.00;99494.06;5003953;28;20222;-70
2024/03/30 00:47:09;;;;;;;10.80;6.80;;;;;;;8.59;100.00;99495.91;5001153;28;20327;-70
2024/03/30 00:49:37;;;;;;;10.10;6.93;;;;;;;8.56;100.00;99491.34;5006156;28;20825;-70
2024/03/30 00:52:03;;;;;;;12.27;7.17;;;;;;;8.54;100.00;99500.69;5011203;28;20198;-70
2024/03/30 00:54:30;;;;;;;11.10;7.13;;;;;;;8.51;100.00;99507.38;5005209;28;20195;-70
2024/03/30 00:56:55;;;;;;;11.20;6.63;;;;;;;8.46;100.00;99504.22;5006020;28;20234;-70
2024/03/30 00:59:22;;;;;;;11.60;6.73;;;;;;;8.43;100.00;99499.66;5002245;28;20570;-70
2024/03/30 01:01:47;;;;;;;9.10;6.77;;;;;;;8.38;100.00;99505.91;5006566;28;20211;-70
2024/03/30 01:04:13;;;;;;;12.20;7.50;;;;;;;8.33;100.00;99495.63;5006356;28;20567;-69
2024/03/30 01:06:40;;;;;;;9.93;6.43;;;;;;;8.28;100.00;99498.50;5009971;28;20229;-70
2024/03/30 01:09:08;;;;;;;9.73;7.00;;;;;;;8.24;100.00;99497.63;4993110;28;20700;-70
2024/03/30 01:11:34;;;;;;;9.93;6.33;;;;;;;8.19;100.00;99505.72;5011560;28;20680;-70
2024/03/30 01:14:01;;;;;;;12.20;6.97;;;;;;;8.12;100.00;99495.03;5009567;28;20197;-70
2024/03/30 01:16:27;;;;;;;9.30;7.17;;;;;;;8.07;100.00;99497.16;4997561;28;20234;-70
2024/03/30 01:18:54;;;;;;;15.47;7.27;;;;;;;8.03;100.00;99497.03;5002373;28;20197;-70
2024/03/30 01:21:19;;;;;;;12.33;7.33;;;;;;;7.99;100.00;99496.19;5007522;28;20565;-70
2024/03/30 01:23:48;;;;;;;9.83;6.47;;;;;;;7.94;100.00;99499.06;5003608;28;20306;-69
2024/03/30 01:26:16;;;;;;;11.07;7.23;;;;;;;7.90;100.00;99507.91;4995385;28;20221;-69
2024/03/30 01:28:43;;;;;;;14.47;8.27;;;;;;;7.85;100.00;99502.88;5005421;28;20605;-70
2024/03/30 01:31:11;;;;;;;16.53;9.57;;;;;;;7.81;100.00;99496.78;5010812;28;20221;-70
2024/03/30 01:33:38;;;;;;;13.83;8.20;;;;;;;7.76;100.00;99495.16;5008154;28;20201;-70
2024/03/30 01:36:03;;;;;;;15.30;8.53;;;;;;;7.72;100.00;99486.38;5009966;28;20698;-70
2024/03/30 01:38:30;;;;;;;13.80;7.73;;;;;;;7.70;100.00;99495.69;5003910;28;20285;-70
2024/03/30 01:40:57;;;;;;;12.90;8.17;;;;;;;7.66;100.00;99495.59;5005300;28;20208;-70
2024/03/30 01:43:23;;;;;;;16.23;8.60;;;;;;;7.64;100.00;99508.31;5001672;28;20288;-70
2024/03/30 01:45:49;;;;;;;12.67;8.13;;;;;;;7.60;100.00;99510.06;4996757;28;20264;-70
2024/03/30 01:48:17;;;;;;;18.20;9.40;;;;;;;7.59;100.00;99521.69;5011025;28;20212;-69
2024/03/30 01:50:44;;;;;;;18.37;11.00;;;;;;;7.57;100.00;99509.97;5006539;28;20189;-70
2024/03/30 01:53:14;;;;;;;16.13;8.93;;;;;;;7.55;100.00;99512.91;5006727;28;20213;-70
2024/03/30 01:55:42;;;;;;;15.10;8.90;;;;;;;7.53;100.00;99517.75;5005061;28;20221;-70
2024/03/30 01:58:13;;;;;;;17.03;9.60;;;;;;;7.52;100.00;99518.06;4990551;28;20264;-70
2024/03/30 02:00:40;;;;;;;13.33;8.30;;;;;;;7.50;100.00;99521.03;4990894;28;20201;-69
2024/03/30 02:03:06;;;;;;;14.07;7.43;;;;;;;7.49;100.00;99522.13;5007219;28;20201;-69
2024/03/30 02:05:32;;;;;;;12.33;7.73;;;;;;;7.49;100.00;99521.34;5012789;28;20232;-69
2024/03/30 02:08:03;;;;;;;12.23;7.73;;;;;;;7.47;100.00;99521.69;5010500;28;20204;-70
2024/03/30 02:10:29;;;;;;;12.27;8.00;;;;;;;7.46;100.00;99517.53;5010137;28;20210;-70
2024/03/30 02:12:56;;;;;;;9.37;6.77;;;;;;;7.46;100.00;99519.41;4991667;28;20217;-70
2024/03/30 02:15:22;;;;;;;9.87;7.20;;;;;;;7.44;100.00;99516.31;4997561;28;20684;-70
2024/03/30 02:17:49;;;;;;;11.47;6.50;;;;;;;7.43;100.00;99520.03;5005961;28;20212;-70
2024/03/30 02:20:14;;;;;;;10.13;6.67;;;;;;;7.43;100.00;99514.78;5010517;28;20196;-70
2024/03/30 02:22:49;;;;;;;10.67;6.67;;;;;;;7.40;100.00;99516.22;5006025;28;20208;-70
2024/03/30 02:25:17;;;;;;;8.03;6.30;;;;;;;7.39;100.00;99512.06;5004382;28;20239;-70
2024/03/30 02:27:43;;;;;;;9.00;6.03;;;;;;;7.38;100.00;99505.28;5004326;28;20573;-69
2024/03/30 02:30:11;;;;;;;11.00;6.00;;;;;;;7.36;100.00;99502.22;5009059;28;20205;-69
2024/03/30 02:32:39;;;;;;;11.70;6.53;;;;;;;7.35;100.00;99510.44;5004546;28;20200;-69
2024/03/30 02:35:04;;;;;;;9.63;6.43;;;;;;;7.33;100.00;99500.25;4995634;28;20197;-70
2024/03/30 02:37:31;;;;;;;11.23;7.10;;;;;;;7.32;100.00;99500.56;4992213;28;20207;-70
2024/03/30 02:39:56;;;;;;;9.57;6.43;;;;;;;7.29;100.00;99504.63;5006147;28;20204;-70
2024/03/30 02:42:24;;;;;;;11.80;6.93;;;;;;;7.27;100.00;99504.19;5001701;28;20559;-70
2024/03/30 02:44:49;;;;;;;8.90;5.97;;;;;;;7.26;100.00;99504.53;5003475;28;20588;-70
2024/03/30 02:47:15;;;;;;;11.10;6.30;;;;;;;7.24;100.00;99498.81;4999541;28;20216;-70
2024/03/30 02:49:41;;;;;;;12.03;5.83;;;;;;;7.23;100.00;99497.28;5007779;28;20211;-70
2024/03/30 02:52:07;;;;;;;9.97;6.30;;;;;;;7.22;100.00;99490.50;4994502;28;20197;-70
2024/03/30 02:54:33;;;;;;;9.93;6.47;;;;;;;7.21;100.00;99499.50;5007304;28;20210;-70
2024/03/30 02:56:59;;;;;;;10.07;6.30;;;;;;;7.19;100.00;99497.19;5011751;28;21156;-70
2024/03/30 02:59:25;;;;;;;13.03;6.30;;;;;;;7.21;100.00;99499.50;5010969;28;20205;-70
2024/03/30 03:01:52;;;;;;;9.43;6.10;;;;;;;7.21;100.00;99491.63;5014296;28;20209;-70
2024/03/30 03:04:17;;;;;;;10.03;5.87;;;;;;;7.22;100.00;99501.00;4995508;28;21006;-70
2024/03/30 03:06:44;;;;;;;10.20;6.53;;;;;;;7.23;100.00;99495.44;5008066;28;20223;-70
2024/03/30 03:09:09;;;;;;;10.07;5.97;;;;;;;7.26;100.00;99499.28;5009368;28;20287;-70
2024/03/30 03:11:36;;;;;;;8.43;6.27;;;;;;;7.29;100.00;99498.59;5008521;28;20280;-70
2024/03/30 03:14:02;;;;;;;11.13;5.60;;;;;;;7.30;100.00;99500.91;5010063;28;20206;-69
2024/03/30 03:16:30;;;;;;;10.73;6.43;;;;;;;7.33;100.00;99496.84;4998185;28;20227;-70
2024/03/30 03:18:55;;;;;;;10.80;5.67;;;;;;;7.35;100.00;99498.06;4993672;28;20204;-70
2024/03/30 03:21:22;;;;;;;9.17;6.10;;;;;;;7.37;100.00;99505.59;5015498;28;20624;-70
2024/03/30 03:23:50;;;;;;;8.23;5.60;;;;;;;7.38;100.00;99499.25;5013246;28;20800;-70
2024/03/30 03:26:16;;;;;;;8.97;5.53;;;;;;;7.39;100.00;99503.41;4995410;28;20277;-70
2024/03/30 03:28:42;;;;;;;9.13;6.40;;;;;;;7.40;100.00;99497.09;5013327;28;20205;-70
2024/03/30 03:31:08;;;;;;;8.60;6.10;;;;;;;7.42;100.00;99500.13;4995771;28;20205;-70
2024/03/30 03:33:35;;;;;;;11.10;5.70;;;;;;;7.44;100.00;99500.56;5004328;28;20815;-70
2024/03/30 03:36:02;;;;;;;9.67;4.90;;;;;;;7.45;100.00;99502.84;5012688;28;20252;-70
2024/03/30 03:38:27;;;;;;;9.67;5.03;;;;;;;7.46;100.00;99501.75;4994112;28;20214;-70
2024/03/30 03:40:54;;;;;;;9.63;5.47;;;;;;;7.47;100.00;99489.41;4993400;28;20549;-70
2024/03/30 03:43:20;;;;;;;6.97;5.53;;;;;;;7.48;100.00;99496.19;5008733;28;20587;-70
2024/03/30 03:45:46;;;;;;;8.27;5.97;;;;;;;7.48;100.00;99485.69;5006411;28;20221;-70
2024/03/30 03:48:12;;;;;;;12.93;6.63;;;;;;;7.51;100.00;99492.91;5011803;28;20602;-70
2024/03/30 03:50:39;;;;;;;8.20;5.87;;;;;;;7.51;100.00;99491.03;5011437;28;20191;-70
2024/03/30 03:53:05;;;;;;;8.33;5.97;;;;;;;7.51;100.00;99483.16;4994781;28;20228;-70
2024/03/30 03:55:33;;;;;;;10.03;6.80;;;;;;;7.51;100.00;99483.16;5012543;28;20221;-69
2024/03/30 03:57:58;;;;;;;10.27;5.90;;;;;;;7.51;100.00;99485.78;5009417;28;20212;-70
2024/03/30 04:00:24;;;;;;;9.90;7.23;;;;;;;7.51;100.00;99483.16;5012472;28;20200;-70
2024/03/30 04:02:50;;;;;;;9.70;6.23;;;;;;;7.50;100.00;99486.88;5011184;28;20704;-70
2024/03/30 04:05:16;;;;;;;9.43;5.97;;;;;;;7.50;100.00;99488.75;5009046;28;20224;-70
2024/03/30 04:07:43;;;;;;;8.40;6.37;;;;;;;7.49;100.00;99487.19;5010945;28;20193;-70
2024/03/30 04:10:11;;;;;;;10.37;5.67;;;;;;;7.47;100.00;99489.41;4997755;28;20728;-70
2024/03/30 04:12:38;;;;;;;8.97;6.37;;;;;;;7.44;100.00;99485.56;4990916;28;20300;-70
2024/03/30 04:15:05;;;;;;;9.10;5.77;;;;;;;7.42;100.00;99493.03;4993664;28;20206;-70
2024/03/30 04:17:32;;;;;;;9.23;5.20;;;;;;;7.40;100.00;99484.69;5006901;28;20205;-70
2024/03/30 04:20:00;;;;;;;10.07;6.30;;;;;;;7.36;100.00;99477.81;4991166;28;20294;-70
2024/03/30 04:22:26;;;;;;;8.00;5.13;;;;;;;7.34;100.00;99485.25;4997020;28;20533;-70
2024/03/30 04:24:53;;;;;;;7.57;4.80;;;;;;;7.32;100.00;99474.31;5003143;28;20212;-70
2024/03/30 04:27:19;;;;;;;8.87;6.03;;;;;;;7.30;100.00;99476.53;5003685;28;20292;-70
2024/03/30 04:29:45;;;;;;;9.90;5.17;;;;;;;7.27;100.00;99464.81;5012307;28;20298;-70
2024/03/30 04:32:11;;;;;;;8.30;5.23;;;;;;;7.23;100.00;99469.19;4993988;28;20192;-70
2024/03/30 04:34:37;;;;;;;9.23;5.53;;;;;;;7.20;100.00;99471.72;5012338;28;20196;-70
2024/03/30 04:37:04;;;;;;;7.77;5.37;;;;;;;7.18;100.00;99473.88;5009597;28;20264;-69
2024/03/30 04:39:30;;;;;;;6.77;4.87;;;;;;;7.15;100.00;99472.69;4993414;28;20201;-70
2024/03/30 04:41:59;;;;;;;11.03;4.73;;;;;;;7.12;100.00;99473.34;4986148;28;20205;-70
2024/03/30 04:44:25;;;;;;;6.70;4.37;;;;;;;7.09;100.00;99463.50;4993971;28;20239;-70
2024/03/30 04:46:51;;;;;;;9.00;4.83;;;;;;;7.08;100.00;99471.69;5011867;28;20299;-69
2024/03/30 04:49:16;;;;;;;11.60;4.63;;;;;;;7.07;100.00;99470.19;5007387;28;20223;-70
2024/03/30 04:51:43;;;;;;;7.20;4.43;;;;;;;7.06;100.00;99471.28;4996382;28;20196;-70
2024/03/30 04:54:08;;;;;;;7.60;4.37;;;;;;;7.05;100.00;99464.50;4991180;28;20679;-70
2024/03/30 04:56:35;;;;;;;12.07;4.60;;;;;;;7.06;100.00;99466.03;4998888;28;20220;-70
2024/03/30 04:59:01;;;;;;;7.80;4.33;;;;;;;7.07;100.00;99459.66;5006736;28;20680;-70
2024/03/30 05:01:29;;;;;;;6.43;4.03;;;;;;;7.10;100.00;99462.41;5002827;28;20283;-70
2024/03/30 05:03:54;;;;;;;7.63;4.40;;;;;;;7.12;100.00;99462.09;5009174;28;20205;-70
2024/03/30 05:06:20;;;;;;;8.03;4.10;;;;;;;7.15;100.00;99467.44;5002023;28;20235;-70
2024/03/30 05:08:46;;;;;;;5.97;4.00;;;;;;;7.17;100.00;99470.50;5010267;28;20204;-70
2024/03/30 05:11:12;;;;;;;9.37;4.57;;;;;;;7.21;100.00;99471.41;5001186;28;20204;-70
2024/03/30 05:13:40;;;;;;;9.33;4.30;;;;;;;7.25;100.00;99471.50;5011509;28;20204;-70
2024/03/30 05:16:08;;;;;;;7.60;4.43;;;;;;;7.27;100.00;99467.44;5005504;28;20667;-70
2024/03/30 05:18:33;;;;;;;7.13;3.93;;;;;;;7.32;100.00;99463.81;5001039;28;20197;-70
2024/03/30 05:21:01;;;;;;;8.67;4.43;;;;;;;7.34;100.00;99470.28;4993708;28;20215;-70
2024/03/30 05:23:29;;;;;;;8.60;3.80;;;;;;;7.39;100.00;99472.66;5006674;28;20207;-70
2024/03/30 05:25:56;;;;;;;7.67;4.70;;;;;;;7.42;100.00;99472.03;4999998;28;20252;-70
2024/03/30 05:28:24;;;;;;;6.50;4.70;;;;;;;7.47;100.00;99469.16;5000816;28;20208;-70
2024/03/30 05:30:51;;;;;;;9.20;5.03;;;;;;;7.51;100.00;99475.28;5003547;28;20205;-70
2024/03/30 05:33:20;;;;;;;7.77;4.20;;;;;;;7.56;100.00;99472.41;5010625;28;20228;-70
2024/03/30 05:35:46;;;;;;;7.50;5.00;;;;;;;7.60;100.00;99468.03;5003477;28;20232;-70
2024/03/30 05:38:13;;;;;;;7.03;4.83;;;;;;;7.64;100.00;99455.00;4987399;28;20255;-70
2024/03/30 05:40:38;;;;;;;9.13;4.83;;;;;;;7.70;100.00;99466.78;4998452;28;20201;-70
2024/03/30 05:43:06;;;;;;;7.97;4.70;;;;;;;7.75;100.00;99466.56;5003688;28;20197;-70
2024/03/30 05:45:32;;;;;;;8.70;4.37;;;;;;;7.78;100.00;99461.44;5010333;28;20222;-70
2024/03/30 05:47:58;;;;;;;8.23;4.37;;;;;;;7.85;100.00;99455.59;5007925;28;20190;-70
2024/03/30 05:50:26;;;;;;;7.40;4.67;;;;;;;7.90;100.00;99458.75;5001509;28;20205;-70
2024/03/30 05:52:53;;;;;;;9.07;4.77;;;;;;;7.97;100.00;99455.56;4999429;28;20712;-70
2024/03/30 05:55:19;;;;;;;5.70;4.73;;;;;;;8.04;100.00;99453.13;5002399;28;20218;-70
2024/03/30 05:57:46;;;;;;;8.47;4.93;;;;;;;8.14;100.00;99455.25;5006733;28;20232;-70
2024/03/30 06:00:14;;;;;;;8.87;4.93;;;;;;;8.26;100.00;99447.34;5008237;28;20551;-70
2024/03/30 06:02:41;;;;;;;7.37;4.97;;;;;;;8.39;100.00;99446.19;5009028;28;20198;-70
2024/03/30 06:05:08;;;;;;;11.50;5.30;;;;;;;8.53;100.00;99447.28;5003143;28;20808;-70
2024/03/30 06:07:35;;;;;;;9.63;4.60;;;;;;;8.68;100.00;99453.66;5007736;28;20205;-70
2024/03/30 06:10:04;;;;;;;8.57;4.27;;;;;;;8.83;100.00;99445.78;5000702;28;20578;-70
2024/03/30 06:12:30;;;;;;;10.27;4.47;;;;;;;8.98;100.00;99449.47;5008265;28;20212;-70
2024/03/30 06:14:57;;;;;;;6.67;4.40;;;;;;;9.11;100.00;99454.31;5008732;28;20189;-70
2024/03/30 06:17:23;;;;;;;10.07;4.80;;;;;;;9.24;100.00;99450.47;5005995;28;20204;-70
2024/03/30 06:19:49;;;;;;;9.43;4.30;;;;;;;9.37;100.00;99451.88;5008634;28;20692;-70
2024/03/30 06:22:15;;;;;;;6.53;4.07;;;;;;;9.51;100.00;99452.19;5004554;28;20372;-70
2024/03/30 06:24:43;;;;;;;4.30;3.20;;;;;;;9.67;100.00;99458.16;5008935;28;20191;-70
2024/03/30 06:27:09;;;;;;;8.77;3.27;;;;;;;9.79;100.00;99458.00;5008119;28;20216;-70
2024/03/30 06:29:36;;;;;;;7.13;3.03;;;;;;;9.94;100.00;99467.75;4997778;28;20646;-70
2024/03/30 06:32:02;;;;;;;5.50;2.70;;;;;;;10.09;100.00;99458.28;5003983;28;20202;-70
2024/03/30 06:34:28;;;;;;;5.93;2.80;;;;;;;10.24;100.00;99467.97;5008640;28;20788;-70
2024/03/30 06:36:54;;;;;;;7.30;3.10;;;;;;;10.40;100.00;99468.63;5009105;28;20590;-70
2024/03/30 06:39:20;;;;;;;6.93;2.60;;;;;;;10.53;100.00;99464.72;5001052;28;20202;-70
2024/03/30 06:44:32;;;;;;;11.13;4.67;;;;;;;10.82;100.00;99470.09;5002415;28;20206;-70
2024/03/30 06:46:57;;;;;;;9.30;3.90;;;;;;;10.95;100.00;99476.72;5001203;28;20234;-70
2024/03/30 06:49:24;;;;;;;7.90;3.30;;;;;;;11.08;100.00;99475.41;5001192;28;20297;-70
2024/03/30 06:51:50;;;;;;;9.00;2.93;;;;;;;11.21;100.00;99471.47;5007609;28;20210;-70
2024/03/30 06:54:16;;;;;;;8.90;3.10;;;;;;;11.33;100.00;99471.25;5001966;28;20201;-70
2024/03/30 06:56:43;;;;;;;6.43;3.40;;;;;;;11.47;100.00;99474.09;5002890;28;20687;-70
2024/03/30 06:59:09;;;;;;;4.43;2.23;;;;;;;11.60;100.00;99474.69;4982185;28;20213;-70
2024/03/30 07:01:36;;;;;;;4.77;2.50;;;;;;;11.74;100.00;99480.16;5001785;28;20586;-70
2024/03/30 07:04:02;;;;;;;5.90;2.93;;;;;;;11.85;100.00;99481.78;5003765;28;20205;-70
2024/03/30 07:06:31;;;;;;;6.60;2.50;;;;;;;11.99;100.00;99481.97;5001218;28;20225;-70
2024/03/30 07:08:57;;;;;;;6.67;2.63;;;;;;;12.15;100.00;99484.41;5003992;28;20228;-70
2024/03/30 07:11:23;;;;;;;6.90;2.60;;;;;;;12.31;100.00;99469.09;5006487;28;20579;-70
2024/03/30 07:13:49;;;;;;;10.33;2.33;;;;;;;12.46;100.00;99476.81;5000938;28;20205;-70
2024/03/30 07:16:16;;;;;;;11.27;2.83;;;;;;;12.61;100.00;99478.47;4998026;28;20225;-70
2024/03/30 07:18:43;;;;;;;9.53;2.37;;;;;;;12.76;100.00;99482.75;5001773;28;20210;-70
2024/03/30 07:21:09;;;;;;;5.20;2.30;;;;;;;12.92;100.00;99480.63;5007715;28;20238;-71
2024/03/30 07:23:35;;;;;;;8.93;2.70;;;;;;;13.07;100.00;99482.28;5004191;28;20209;-70
2024/03/30 07:26:04;;;;;;;10.13;2.60;;;;;;;13.22;100.00;99483.91;4997840;28;20237;-70
2024/03/30 07:28:29;;;;;;;18.00;3.03;;;;;;;13.38;100.00;99478.31;5003498;28;20215;-71
2024/03/30 07:31:00;;;;;;;12.23;2.73;;;;;;;13.51;100.00;99493.53;5005380;28;20231;-70
2024/03/30 07:33:27;;;;;;;7.53;2.60;;;;;;;13.67;100.00;99485.28;5007060;28;20253;-70
2024/03/30 07:35:54;;;;;;;10.93;2.37;;;;;;;13.79;100.00;99483.09;5009587;28;20694;-71
2024/03/30 07:38:23;;;;;;;7.23;2.47;;;;;;;13.93;100.00;99493.00;5008215;28;20255;-71
2024/03/30 07:40:49;;;;;;;13.47;2.73;;;;;;;14.04;100.00;99496.44;5010898;28;20243;-70
2024/03/30 07:43:15;;;;;;;14.43;2.60;;;;;;;14.14;100.00;99493.84;5010458;28;20229;-71
2024/03/30 07:45:41;;;;;;;11.73;2.70;;;;;;;14.26;100.00;99495.41;5007059;28;20235;-70
2024/03/30 07:48:07;;;;;;;10.80;2.60;;;;;;;14.37;100.00;99498.84;5004404;28;20205;-70
2024/03/30 07:50:34;;;;;;;16.03;3.00;;;;;;;14.47;100.00;99508.72;4987054;28;20207;-70
2024/03/30 07:53:00;;;;;;;8.90;2.60;;;;;;;14.56;100.00;99499.28;5000121;28;20840;-71
2024/03/30 07:55:26;;;;;;;15.47;2.83;;;;;;;14.68;100.00;99509.53;5009054;28;20308;-71
2024/03/30 07:57:51;;;;;;;16.87;2.93;;;;;;;14.78;100.00;99508.78;5010870;28;20200;-71
2024/03/30 08:00:18;;;;;;;12.17;2.90;;;;;;;14.88;100.00;99507.28;5009227;28;20833;-71
2024/03/30 08:02:44;;;;;;;16.50;3.63;;;;;;;15.00;100.00;99504.25;5009202;28;20562;-71
2024/03/30 08:05:10;;;;;;;12.87;3.33;;;;;;;15.10;100.00;99506.91;5010942;28;20223;-71
2024/03/30 08:07:37;;;;;;;18.10;3.27;;;;;;;15.20;100.00;99498.16;5013962;28;20204;-71
2024/03/30 08:10:04;;;;;;;14.63;2.80;;;;;;;15.31;100.00;99501.56;5010567;28;20574;-71
2024/03/30 08:12:29;;;;;;;15.73;3.30;;;;;;;15.44;100.00;99507.28;5004862;28;20200;-71
2024/03/30 08:14:55;;;;;;;16.83;3.13;;;;;;;15.54;100.00;99517.13;5005711;28;20683;-71
2024/03/30 08:17:21;;;;;;;13.27;3.17;;;;;;;15.67;100.00;99515.56;5007430;28;20580;-71
2024/03/30 08:19:47;;;;;;;13.40;3.00;;;;;;;15.78;100.00;99509.09;4990747;28;20193;-71
2024/03/30 08:22:12;;;;;;;15.17;3.20;;;;;;;15.90;100.00;99514.00;5008391;28;20569;-71
2024/03/30 08:24:40;;;;;;;16.20;4.90;;;;;;;16.02;100.00;99515.47;5010141;28;20197;-70
2024/03/30 08:27:06;;;;;;;13.70;3.33;;;;;;;16.11;100.00;99519.25;5004640;28;20583;-71
2024/03/30 08:29:32;;;;;;;13.03;3.03;;;;;;;16.22;100.00;99522.63;5009718;28;20193;-71
2024/03/30 08:31:57;;;;;;;17.77;3.87;;;;;;;16.31;100.00;99522.94;5010849;28;20196;-71
2024/03/30 08:34:24;;;;;;;20.67;4.17;;;;;;;16.42;100.00;99521.03;5006987;28;20711;-71
2024/03/30 08:36:49;;;;;;;16.73;3.67;;;;;;;16.52;100.00;99512.22;5004763;28;20584;-71
2024/03/30 08:39:15;;;;;;;16.13;3.63;;;;;;;16.60;97.48;99505.66;5002517;28;20207;-71
2024/03/30 08:41:42;;;;;;;18.83;3.63;;;;;;;16.73;95.81;99513.97;5007376;28;20212;-71
2024/03/30 08:44:08;;;;;;;32.63;4.43;;;;;;;16.83;96.43;99500.56;5008330;28;20204;-71
2024/03/30 08:46:34;;;;;;;13.03;3.40;;;;;;;16.96;92.42;99503.50;4999143;28;20232;-71
2024/03/30 08:49:03;;;;;;;16.93;4.17;;;;;;;17.07;89.36;99504.19;5007492;28;20263;-71
2024/03/30 08:51:29;;;;;;;18.37;4.73;;;;;;;17.17;87.38;99496.09;5005036;28;20216;-71
2024/03/30 08:54:00;;;;;;;18.73;4.60;;;;;;;17.27;88.38;99499.81;5005248;28;20200;-71
2024/03/30 08:56:26;;;;;;;24.07;4.20;;;;;;;17.40;83.90;99504.31;5009006;28;20223;-71
2024/03/30 08:58:53;;;;;;;28.67;4.33;;;;;;;17.49;82.33;99509.91;5008142;28;20189;-71
2024/03/30 09:01:19;;;;;;;32.10;4.87;;;;;;;17.59;82.18;99502.97;5002639;28;20201;-71
2024/03/30 09:03:45;;;;;;;25.30;4.57;;;;;;;17.68;79.05;99500.56;5004805;28;20196;-71
2024/03/30 09:06:10;;;;;;;28.97;4.80;;;;;;;17.76;82.99;99497.44;5004137;28;20217;-71
2024/03/30 09:08:37;;;;;;;21.13;4.70;;;;;;;17.87;74.23;99500.75;5007148;28;20219;-71
2024/03/30 09:11:03;;;;;;;33.47;5.53;;;;;;;17.96;75.67;99502.91;5006895;28;20603;-71
2024/03/30 09:13:29;;;;;;;28.03;4.87;;;;;;;18.04;72.88;99499.00;5006500;28;20524;-71
2024/03/30 09:15:56;;;;;;;30.50;5.97;;;;;;;18.15;72.20;99496.94;4989684;28;20267;-71
2024/03/30 09:18:23;;;;;;;42.83;5.10;;;;;;;18.24;73.47;99499.88;5007860;28;20200;-71
2024/03/30 09:20:48;;;;;;;31.13;5.20;;;;;;;18.31;70.56;99500.53;5009190;28;20285;-71
2024/03/30 09:23:17;;;;;;;28.37;5.60;;;;;;;18.39;74.27;99495.88;5010114;28;20284;-71
2024/03/30 09:25:42;;;;;;;30.77;5.30;;;;;;;18.50;70.31;99499.16;5001530;28;20217;-71
2024/03/30 09:28:09;;;;;;;28.20;4.47;;;;;;;18.58;72.29;99492.56;5002783;28;20205;-71
2024/03/30 09:30:34;;;;;;;31.13;6.40;;;;;;;18.68;69.49;99491.66;5007770;28;20204;-71
2024/03/30 09:33:02;;;;;;;37.73;6.50;;;;;;;18.78;68.26;99488.06;4986832;28;20197;-71
2024/03/30 09:35:27;;;;;;;33.27;5.53;;;;;;;18.86;65.63;99487.53;5003204;28;20228;-71
2024/03/30 09:37:54;;;;;;;38.93;5.57;;;;;;;18.94;62.94;99480.16;5006819;28;20201;-71
2024/03/30 09:40:19;;;;;;;46.40;7.03;;;;;;;19.03;68.07;99467.75;5004508;28;20227;-71
2024/03/30 09:42:47;;;;;;;28.73;5.70;;;;;;;19.13;69.34;99468.75;5006067;28;20196;-71
2024/03/30 09:45:13;;;;;;;36.03;6.17;;;;;;;19.24;61.56;99464.00;5004147;28;20279;-71
2024/03/30 09:47:41;;;;;;;38.90;7.40;;;;;;;19.33;59.93;99462.28;5005540;28;20205;-71
2024/03/30 09:50:09;;;;;;;46.27;7.33;;;;;;;19.43;61.95;99463.25;5003358;28;20205;-71
2024/03/30 09:52:39;;;;;;;42.03;6.67;;;;;;;19.50;59.58;99461.22;5004638;28;20295;-71
2024/03/30 09:55:10;;;;;;;45.63;7.20;;;;;;;19.60;62.64;99465.59;5003867;28;20200;-71
2024/03/30 09:57:39;;;;;;;41.07;7.10;;;;;;;19.69;62.19;99449.75;5002937;28;20204;-71
2024/03/30 10:00:07;;;;;;;48.00;7.60;;;;;;;19.82;57.46;99461.34;5002446;28;20207;-71
2024/03/30 10:02:38;;;;;;;42.50;7.27;;;;;;;19.90;58.76;99454.66;5006529;28;20201;-71
2024/03/30 10:05:06;;;;;;;37.47;6.63;;;;;;;20.00;55.39;99440.28;4988717;28;20761;-71
2024/03/30 10:07:36;;;;;;;50.47;7.87;;;;;;;20.09;54.02;99450.47;5003117;28;20275;-71
2024/03/30 10:10:07;;;;;;;43.03;7.90;;;;;;;20.18;57.44;99450.66;5001809;28;20682;-71
2024/03/30 10:12:39;;;;;;;42.53;7.27;;;;;;;20.26;54.29;99454.69;5005130;28;20201;-71
2024/03/30 10:15:06;;;;;;;45.57;7.03;;;;;;;20.35;51.95;99454.88;5003563;28;20567;-71
2024/03/30 10:17:33;;;;;;;53.33;8.27;;;;;;;20.42;56.67;99458.16;5005756;28;20287;-71
2024/03/30 10:19:58;;;;;;;46.83;7.23;;;;;;;20.51;53.62;99450.28;5002094;28;20208;-71
2024/03/30 10:22:25;;;;;;;45.60;7.10;;;;;;;20.62;52.17;99450.03;4986199;28;20208;-71
2024/03/30 10:24:54;;;;;;;50.63;8.43;;;;;;;20.71;51.29;99442.91;4999106;28;20201;-71
2024/03/30 10:27:20;;;;;;;46.13;7.78;;;;;;;20.80;52.11;99445.75;5003189;28;20274;-71
2024/03/30 10:29:46;;;;;;;43.35;7.88;;;;;;;20.89;52.62;99439.81;5004059;28;20957;-71
2024/03/30 10:32:12;;;;;;;48.30;8.23;;;;;;;20.98;50.27;99434.59;4998208;28;20208;-71
2024/03/30 10:34:38;;;;;;;32.97;6.05;;;;;;;21.08;50.05;99442.41;5001187;28;20734;-72
2024/03/30 10:37:07;;;;;;;52.28;8.85;;;;;;;21.17;49.23;99439.84;5006290;28;20220;-71
2024/03/30 10:39:33;;;;;;;46.58;8.27;;;;;;;21.26;51.41;99436.56;5004740;28;20568;-71
2024/03/30 10:42:00;;;;;;;46.55;6.88;;;;;;;21.34;48.37;99437.88;5002395;28;20204;-71
2024/03/30 10:44:26;;;;;;;47.17;8.02;;;;;;;21.42;51.71;99445.31;5004372;28;20212;-71
2024/03/30 10:46:55;;;;;;;46.58;7.35;;;;;;;21.49;48.74;99439.75;5003143;28;20232;-71
2024/03/30 10:49:23;;;;;;;55.58;7.50;;;;;;;21.57;48.40;99432.25;5005090;28;20282;-71
2024/03/30 10:51:50;;;;;;;57.83;8.73;;;;;;;21.65;47.25;99431.63;5002272;28;20200;-71
2024/03/30 10:54:19;;;;;;;49.03;7.53;;;;;;;21.71;51.63;99423.81;5005419;28;20212;-71
2024/03/30 10:56:49;;;;;;;46.90;6.72;;;;;;;21.76;52.32;99418.69;5006506;28;20762;-71
2024/03/30 10:59:17;;;;;;;51.22;7.13;;;;;;;21.82;48.30;99422.34;5001662;28;20209;-71
2024/03/30 11:01:45;;;;;;;46.05;7.60;;;;;;;21.91;47.37;99413.63;4998982;28;20192;-71
2024/03/30 11:04:14;;;;;;;49.72;8.00;;;;;;;21.99;46.88;99414.94;5006198;28;20215;-71
2024/03/30 11:06:42;;;;;;;56.45;7.90;;;;;;;22.06;48.36;99417.41;5001993;28;20220;-71
2024/03/30 11:09:11;;;;;;;56.70;8.05;;;;;;;22.13;47.58;99419.88;5004018;28;20216;-71
2024/03/30 11:11:39;;;;;;;37.53;7.38;;;;;;;22.21;46.08;99416.56;5004366;28;20200;-71
2024/03/30 11:14:04;;;;;;;50.78;8.73;;;;;;;22.30;49.48;99418.59;5005303;28;20540;-71
2024/03/30 11:16:37;;;;;;;45.67;7.32;;;;;;;22.39;46.49;99426.75;5005510;28;20224;-71
2024/03/30 11:19:08;;;;;;;51.15;8.02;;;;;;;22.45;47.10;99422.38;5004804;28;20204;-71
2024/03/30 11:21:43;;;;;;;52.35;7.03;;;;;;;22.50;44.25;99422.56;5004523;28;20569;-71
2024/03/30 11:24:11;;;;;;;38.05;7.22;;;;;;;22.56;45.06;99412.78;5007531;28;20222;-71
2024/03/30 11:26:43;;;;;;;51.17;8.23;;;;;;;22.63;41.58;99412.56;5001351;28;20251;-71